KMOD/MOD METAR and TAF weather

Enter ICAO airport designator
Station Type Date Time Source
KMOD METAR 2021/09/27 06:53 UTC NOAA

KMOD 270653Z AUTO 33008KT 10SM CLR 16/11 A2999 RMK AO2 SLP155 T01560111


Station Type Date Time Source
KMOD Decoded METAR 2021/09/27 06:53 UTC NOAA

MODESTO CITY CO SHAM FLD, CA, United States (KMOD) 37-37N 120-57W 29M
Sep 27, 2021 - 02:53 AM EDT / 2021.09.27 0653 UTC
Wind: from the NNW (330 degrees) at 9 MPH (8 KT):0
Visibility: 10 mile(s):0
Sky conditions: clear
Temperature: 60.1 F (15.6 C)
Dew Point: 52.0 F (11.1 C)
Relative Humidity: 74%
Pressure (altimeter): 29.99 in. Hg (1015 hPa)
ob: KMOD 270653Z AUTO 33008KT 10SM CLR 16/11 A2999 RMK AO2 SLP155 T01560111
cycle: 7

Station Type Date Time Source
KMOD TAF 2021/09/27 06:36 UTC NOAA

TAF KMOD 270531Z 2706/2806 34007KT P6SM FEW250
FM272100 33010KT P6SM BKN250
FM280300 32012KT P6SM SCT050 BKN250

Example: see airport list